sensor_id;sensor_type;location;lat;lon;timestamp;temperature;humidity
42135;DHT22;28312;43.460;11.810;2023-07-20T00:01:51;23.20;45.80
42135;DHT22;28312;43.460;11.810;2023-07-20T00:05:56;23.10;45.90
42135;DHT22;28312;43.460;11.810;2023-07-20T00:09:59;23.10;46.00
42135;DHT22;28312;43.460;11.810;2023-07-20T00:14:04;23.00;46.10
42135;DHT22;28312;43.460;11.810;2023-07-20T00:18:07;22.90;46.20
42135;DHT22;28312;43.460;11.810;2023-07-20T00:22:10;22.80;46.20
42135;DHT22;28312;43.460;11.810;2023-07-20T00:26:16;22.70;46.30
42135;DHT22;28312;43.460;11.810;2023-07-20T00:30:21;22.70;46.30
42135;DHT22;28312;43.460;11.810;2023-07-20T00:34:24;22.70;46.30
42135;DHT22;28312;43.460;11.810;2023-07-20T00:38:29;22.70;46.30
42135;DHT22;28312;43.460;11.810;2023-07-20T00:42:32;22.70;46.40
42135;DHT22;28312;43.460;11.810;2023-07-20T00:46:37;22.70;46.50
42135;DHT22;28312;43.460;11.810;2023-07-20T00:50:41;22.70;46.60
42135;DHT22;28312;43.460;11.810;2023-07-20T00:54:45;22.70;46.80
42135;DHT22;28312;43.460;11.810;2023-07-20T00:58:50;22.70;46.90
42135;DHT22;28312;43.460;11.810;2023-07-20T01:02:53;22.70;47.00
42135;DHT22;28312;43.460;11.810;2023-07-20T01:06:58;22.70;47.00
42135;DHT22;28312;43.460;11.810;2023-07-20T01:11:06;22.70;47.20
42135;DHT22;28312;43.460;11.810;2023-07-20T01:15:11;22.70;47.60
42135;DHT22;28312;43.460;11.810;2023-07-20T01:19:15;22.70;47.60
42135;DHT22;28312;43.460;11.810;2023-07-20T01:27:57;22.70;47.90
42135;DHT22;28312;43.460;11.810;2023-07-20T01:32:06;22.70;48.00
42135;DHT22;28312;43.460;11.810;2023-07-20T01:36:11;22.70;47.90
42135;DHT22;28312;43.460;11.810;2023-07-20T01:40:14;22.70;47.90
42135;DHT22;28312;43.460;11.810;2023-07-20T01:44:18;22.80;47.90
42135;DHT22;28312;43.460;11.810;2023-07-20T01:48:21;22.90;47.90
42135;DHT22;28312;43.460;11.810;2023-07-20T01:52:25;22.90;47.90
42135;DHT22;28312;43.460;11.810;2023-07-20T01:56:28;22.90;47.90
42135;DHT22;28312;43.460;11.810;2023-07-20T02:00:32;23.00;47.90
42135;DHT22;28312;43.460;11.810;2023-07-20T02:04:35;23.00;48.10
42135;DHT22;28312;43.460;11.810;2023-07-20T02:08:38;23.00;48.20
42135;DHT22;28312;43.460;11.810;2023-07-20T02:12:42;23.00;48.20
42135;DHT22;28312;43.460;11.810;2023-07-20T02:16:46;23.00;48.30
42135;DHT22;28312;43.460;11.810;2023-07-20T02:20:49;23.10;48.40
42135;DHT22;28312;43.460;11.810;2023-07-20T02:24:55;23.20;48.50
42135;DHT22;28312;43.460;11.810;2023-07-20T02:28:59;23.20;48.50
42135;DHT22;28312;43.460;11.810;2023-07-20T02:33:02;23.30;48.60
42135;DHT22;28312;43.460;11.810;2023-07-20T02:37:08;23.20;48.60
42135;DHT22;28312;43.460;11.810;2023-07-20T02:41:14;23.20;48.70
42135;DHT22;28312;43.460;11.810;2023-07-20T02:45:17;23.20;48.80
42135;DHT22;28312;43.460;11.810;2023-07-20T02:49:20;23.20;48.80
42135;DHT22;28312;43.460;11.810;2023-07-20T02:53:24;23.10;48.80
42135;DHT22;28312;43.460;11.810;2023-07-20T02:57:27;23.10;48.80
42135;DHT22;28312;43.460;11.810;2023-07-20T03:01:30;23.10;48.80
42135;DHT22;28312;43.460;11.810;2023-07-20T03:05:34;23.10;48.90
42135;DHT22;28312;43.460;11.810;2023-07-20T03:09:37;23.10;48.80
42135;DHT22;28312;43.460;11.810;2023-07-20T03:13:41;23.00;48.70
42135;DHT22;28312;43.460;11.810;2023-07-20T03:17:45;23.00;48.70
42135;DHT22;28312;43.460;11.810;2023-07-20T03:21:51;22.90;48.80
42135;DHT22;28312;43.460;11.810;2023-07-20T03:25:54;22.80;48.90
42135;DHT22;28312;43.460;11.810;2023-07-20T03:29:58;22.70;48.90
42135;DHT22;28312;43.460;11.810;2023-07-20T03:34:03;22.70;48.90
42135;DHT22;28312;43.460;11.810;2023-07-20T03:38:08;22.70;48.90
42135;DHT22;28312;43.460;11.810;2023-07-20T03:42:11;22.70;49.10
42135;DHT22;28312;43.460;11.810;2023-07-20T03:46:17;22.70;49.20
42135;DHT22;28312;43.460;11.810;2023-07-20T03:50:20;22.70;49.20
42135;DHT22;28312;43.460;11.810;2023-07-20T03:54:24;22.60;49.30
42135;DHT22;28312;43.460;11.810;2023-07-20T03:58:28;22.60;49.30
42135;DHT22;28312;43.460;11.810;2023-07-20T04:02:33;22.60;49.30
42135;DHT22;28312;43.460;11.810;2023-07-20T04:06:36;22.60;49.40
42135;DHT22;28312;43.460;11.810;2023-07-20T04:10:42;22.60;49.50
42135;DHT22;28312;43.460;11.810;2023-07-20T04:14:46;22.60;49.50
42135;DHT22;28312;43.460;11.810;2023-07-20T04:18:50;22.60;49.50
42135;DHT22;28312;43.460;11.810;2023-07-20T04:22:53;22.60;49.70
42135;DHT22;28312;43.460;11.810;2023-07-20T04:26:58;22.60;49.80
42135;DHT22;28312;43.460;11.810;2023-07-20T04:31:11;22.60;49.80
42135;DHT22;28312;43.460;11.810;2023-07-20T04:35:17;22.60;49.80
42135;DHT22;28312;43.460;11.810;2023-07-20T04:39:24;22.70;49.80
42135;DHT22;28312;43.460;11.810;2023-07-20T04:43:40;22.60;49.90
42135;DHT22;28312;43.460;11.810;2023-07-20T04:47:44;22.70;50.00
42135;DHT22;28312;43.460;11.810;2023-07-20T04:51:47;22.70;50.00
42135;DHT22;28312;43.460;11.810;2023-07-20T04:55:52;22.80;50.10
42135;DHT22;28312;43.460;11.810;2023-07-20T04:59:59;22.90;50.10
42135;DHT22;28312;43.460;11.810;2023-07-20T05:04:03;23.00;50.10
42135;DHT22;28312;43.460;11.810;2023-07-20T05:08:07;23.10;50.10
42135;DHT22;28312;43.460;11.810;2023-07-20T05:12:10;23.10;50.10
42135;DHT22;28312;43.460;11.810;2023-07-20T05:16:15;23.30;50.10
42135;DHT22;28312;43.460;11.810;2023-07-20T05:20:19;23.40;50.10
42135;DHT22;28312;43.460;11.810;2023-07-20T05:24:23;23.50;50.10
42135;DHT22;28312;43.460;11.810;2023-07-20T05:28:27;23.60;50.20
42135;DHT22;28312;43.460;11.810;2023-07-20T05:32:31;23.70;50.20
42135;DHT22;28312;43.460;11.810;2023-07-20T05:36:36;23.80;50.20
42135;DHT22;28312;43.460;11.810;2023-07-20T05:40:40;24.10;50.30
42135;DHT22;28312;43.460;11.810;2023-07-20T05:44:46;24.20;50.30
42135;DHT22;28312;43.460;11.810;2023-07-20T05:48:51;24.50;50.40
42135;DHT22;28312;43.460;11.810;2023-07-20T05:52:54;24.60;50.40
42135;DHT22;28312;43.460;11.810;2023-07-20T05:56:58;24.90;50.40
42135;DHT22;28312;43.460;11.810;2023-07-20T06:01:03;25.10;50.40
42135;DHT22;28312;43.460;11.810;2023-07-20T06:05:08;25.50;50.40
42135;DHT22;28312;43.460;11.810;2023-07-20T06:09:15;25.70;50.40
42135;DHT22;28312;43.460;11.810;2023-07-20T06:13:18;25.90;50.30
42135;DHT22;28312;43.460;11.810;2023-07-20T06:17:21;26.20;50.30
42135;DHT22;28312;43.460;11.810;2023-07-20T06:21:25;26.40;50.20
42135;DHT22;28312;43.460;11.810;2023-07-20T06:25:28;26.60;50.10
42135;DHT22;28312;43.460;11.810;2023-07-20T06:29:31;26.80;50.10
42135;DHT22;28312;43.460;11.810;2023-07-20T06:33:35;27.10;50.10
42135;DHT22;28312;43.460;11.810;2023-07-20T06:37:38;27.20;50.00
42135;DHT22;28312;43.460;11.810;2023-07-20T06:41:41;27.40;50.00
42135;DHT22;28312;43.460;11.810;2023-07-20T06:45:45;27.60;49.90
42135;DHT22;28312;43.460;11.810;2023-07-20T06:49:54;27.70;49.90
42135;DHT22;28312;43.460;11.810;2023-07-20T06:53:57;27.80;50.00
42135;DHT22;28312;43.460;11.810;2023-07-20T06:58:00;28.10;50.00
42135;DHT22;28312;43.460;11.810;2023-07-20T07:02:03;28.10;50.10
42135;DHT22;28312;43.460;11.810;2023-07-20T07:06:07;28.30;50.10
42135;DHT22;28312;43.460;11.810;2023-07-20T07:10:10;28.50;50.30
42135;DHT22;28312;43.460;11.810;2023-07-20T07:14:13;28.60;50.30
42135;DHT22;28312;43.460;11.810;2023-07-20T07:18:17;28.70;50.40
42135;DHT22;28312;43.460;11.810;2023-07-20T07:22:24;28.90;50.60
42135;DHT22;28312;43.460;11.810;2023-07-20T07:26:28;29.00;50.80
42135;DHT22;28312;43.460;11.810;2023-07-20T07:30:31;29.10;51.00
42135;DHT22;28312;43.460;11.810;2023-07-20T07:34:36;29.20;51.10
42135;DHT22;28312;43.460;11.810;2023-07-20T07:38:40;29.30;51.10
42135;DHT22;28312;43.460;11.810;2023-07-20T07:42:47;29.50;51.10
42135;DHT22;28312;43.460;11.810;2023-07-20T07:46:50;29.60;51.00
42135;DHT22;28312;43.460;11.810;2023-07-20T07:50:58;29.80;51.10
42135;DHT22;28312;43.460;11.810;2023-07-20T07:55:01;30.10;51.10
42135;DHT22;28312;43.460;11.810;2023-07-20T07:59:04;30.20;51.30
42135;DHT22;28312;43.460;11.810;2023-07-20T08:03:07;30.30;51.30
42135;DHT22;28312;43.460;11.810;2023-07-20T08:07:11;30.40;51.40
42135;DHT22;28312;43.460;11.810;2023-07-20T08:11:15;30.60;51.60
42135;DHT22;28312;43.460;11.810;2023-07-20T08:15:18;30.90;51.70
42135;DHT22;28312;43.460;11.810;2023-07-20T08:19:22;31.00;51.60
42135;DHT22;28312;43.460;11.810;2023-07-20T08:23:27;31.20;51.60
42135;DHT22;28312;43.460;11.810;2023-07-20T08:27:31;31.50;51.60
42135;DHT22;28312;43.460;11.810;2023-07-20T08:31:34;31.70;51.40
42135;DHT22;28312;43.460;11.810;2023-07-20T08:35:38;31.80;51.30
42135;DHT22;28312;43.460;11.810;2023-07-20T08:39:41;31.70;51.50
42135;DHT22;28312;43.460;11.810;2023-07-20T08:43:44;31.80;51.80
42135;DHT22;28312;43.460;11.810;2023-07-20T08:47:49;31.90;51.60
42135;DHT22;28312;43.460;11.810;2023-07-20T08:51:53;32.00;51.80
42135;DHT22;28312;43.460;11.810;2023-07-20T08:55:57;32.10;51.80
42135;DHT22;28312;43.460;11.810;2023-07-20T09:00:02;32.20;51.80
42135;DHT22;28312;43.460;11.810;2023-07-20T09:04:07;32.50;52.00
42135;DHT22;28312;43.460;11.810;2023-07-20T09:08:10;32.70;52.20
42135;DHT22;28312;43.460;11.810;2023-07-20T09:12:14;32.90;52.00
42135;DHT22;28312;43.460;11.810;2023-07-20T09:16:19;32.90;51.80
42135;DHT22;28312;43.460;11.810;2023-07-20T09:20:22;33.00;52.00
42135;DHT22;28312;43.460;11.810;2023-07-20T09:24:28;33.10;52.20
42135;DHT22;28312;43.460;11.810;2023-07-20T09:28:32;33.30;52.10
42135;DHT22;28312;43.460;11.810;2023-07-20T09:32:48;33.50;52.10
42135;DHT22;28312;43.460;11.810;2023-07-20T09:36:57;33.60;52.30
42135;DHT22;28312;43.460;11.810;2023-07-20T09:41:01;33.80;51.90
42135;DHT22;28312;43.460;11.810;2023-07-20T09:45:06;34.00;52.00
42135;DHT22;28312;43.460;11.810;2023-07-20T09:49:10;34.10;52.00
42135;DHT22;28312;43.460;11.810;2023-07-20T09:53:16;34.10;51.60
42135;DHT22;28312;43.460;11.810;2023-07-20T09:57:21;34.10;51.50
42135;DHT22;28312;43.460;11.810;2023-07-20T10:01:24;34.10;51.80
42135;DHT22;28312;43.460;11.810;2023-07-20T10:05:33;34.10;51.60
42135;DHT22;28312;43.460;11.810;2023-07-20T10:09:39;34.10;51.50
42135;DHT22;28312;43.460;11.810;2023-07-20T10:13:43;34.30;51.70
42135;DHT22;28312;43.460;11.810;2023-07-20T10:22:15;34.60;51.80
42135;DHT22;28312;43.460;11.810;2023-07-20T10:26:19;34.80;51.60
42135;DHT22;28312;43.460;11.810;2023-07-20T10:30:25;35.10;51.60
42135;DHT22;28312;43.460;11.810;2023-07-20T10:34:30;35.10;51.40
42135;DHT22;28312;43.460;11.810;2023-07-20T10:42:47;35.30;51.20
42135;DHT22;28312;43.460;11.810;2023-07-20T10:46:50;35.60;51.20
42135;DHT22;28312;43.460;11.810;2023-07-20T10:51:14;36.00;51.00
42135;DHT22;28312;43.460;11.810;2023-07-20T10:55:23;36.00;50.90
42135;DHT22;28312;43.460;11.810;2023-07-20T11:03:38;36.20;50.80
42135;DHT22;28312;43.460;11.810;2023-07-20T11:07:42;36.30;50.80
42135;DHT22;28312;43.460;11.810;2023-07-20T11:11:49;36.50;50.70
42135;DHT22;28312;43.460;11.810;2023-07-20T11:20:02;36.60;50.70
42135;DHT22;28312;43.460;11.810;2023-07-20T11:24:09;36.60;50.50
42135;DHT22;28312;43.460;11.810;2023-07-20T11:28:13;36.60;50.30
42135;DHT22;28312;43.460;11.810;2023-07-20T11:32:20;36.60;50.10
42135;DHT22;28312;43.460;11.810;2023-07-20T11:36:24;36.60;50.20
42135;DHT22;28312;43.460;11.810;2023-07-20T11:40:30;36.60;50.30
42135;DHT22;28312;43.460;11.810;2023-07-20T11:44:34;36.60;50.10
42135;DHT22;28312;43.460;11.810;2023-07-20T11:48:38;36.60;50.10
42135;DHT22;28312;43.460;11.810;2023-07-20T11:52:43;36.60;50.20
42135;DHT22;28312;43.460;11.810;2023-07-20T11:56:47;36.60;50.10
42135;DHT22;28312;43.460;11.810;2023-07-20T12:00:52;36.60;49.80
42135;DHT22;28312;43.460;11.810;2023-07-20T12:04:57;36.60;49.80
42135;DHT22;28312;43.460;11.810;2023-07-20T12:09:02;36.70;49.90
42135;DHT22;28312;43.460;11.810;2023-07-20T12:13:07;36.90;49.80
42135;DHT22;28312;43.460;11.810;2023-07-20T12:17:15;36.90;49.50
42135;DHT22;28312;43.460;11.810;2023-07-20T12:21:22;37.00;49.20
42135;DHT22;28312;43.460;11.810;2023-07-20T12:26:00;37.20;48.80
42135;DHT22;28312;43.460;11.810;2023-07-20T12:29:59;37.10;48.30
42135;DHT22;28312;43.460;11.810;2023-07-20T12:34:05;37.00;47.90
42135;DHT22;28312;43.460;11.810;2023-07-20T12:38:10;37.10;48.10
42135;DHT22;28312;43.460;11.810;2023-07-20T12:42:13;37.20;47.80
42135;DHT22;28312;43.460;11.810;2023-07-20T12:46:19;37.30;47.60
42135;DHT22;28312;43.460;11.810;2023-07-20T12:50:24;37.50;47.40
42135;DHT22;28312;43.460;11.810;2023-07-20T12:54:27;37.70;47.10
42135;DHT22;28312;43.460;11.810;2023-07-20T12:58:33;37.80;46.10
42135;DHT22;28312;43.460;11.810;2023-07-20T13:02:38;37.80;45.60
42135;DHT22;28312;43.460;11.810;2023-07-20T13:06:43;37.80;44.80
42135;DHT22;28312;43.460;11.810;2023-07-20T13:10:46;37.80;44.20
42135;DHT22;28312;43.460;11.810;2023-07-20T13:14:50;37.70;43.90
42135;DHT22;28312;43.460;11.810;2023-07-20T13:18:53;37.60;42.70
42135;DHT22;28312;43.460;11.810;2023-07-20T13:22:56;37.60;41.90
42135;DHT22;28312;43.460;11.810;2023-07-20T13:27:00;37.60;41.90
42135;DHT22;28312;43.460;11.810;2023-07-20T13:31:04;37.80;41.40
42135;DHT22;28312;43.460;11.810;2023-07-20T13:35:08;37.90;41.00
42135;DHT22;28312;43.460;11.810;2023-07-20T13:39:11;38.00;40.30
42135;DHT22;28312;43.460;11.810;2023-07-20T13:43:15;37.80;39.70
42135;DHT22;28312;43.460;11.810;2023-07-20T13:47:18;37.70;39.50
42135;DHT22;28312;43.460;11.810;2023-07-20T13:51:24;37.70;39.10
42135;DHT22;28312;43.460;11.810;2023-07-20T13:55:29;37.70;38.60
42135;DHT22;28312;43.460;11.810;2023-07-20T13:59:36;37.80;38.70
42135;DHT22;28312;43.460;11.810;2023-07-20T14:03:40;37.80;38.60
42135;DHT22;28312;43.460;11.810;2023-07-20T14:07:44;38.00;38.60
42135;DHT22;28312;43.460;11.810;2023-07-20T14:11:48;38.10;38.30
42135;DHT22;28312;43.460;11.810;2023-07-20T14:15:54;38.00;38.10
42135;DHT22;28312;43.460;11.810;2023-07-20T14:19:57;37.80;38.00
42135;DHT22;28312;43.460;11.810;2023-07-20T14:24:00;37.70;38.10
42135;DHT22;28312;43.460;11.810;2023-07-20T14:28:04;37.80;38.20
42135;DHT22;28312;43.460;11.810;2023-07-20T14:32:09;37.80;38.10
42135;DHT22;28312;43.460;11.810;2023-07-20T14:36:12;37.80;38.00
42135;DHT22;28312;43.460;11.810;2023-07-20T14:40:15;37.90;38.20
42135;DHT22;28312;43.460;11.810;2023-07-20T14:44:19;38.00;38.40
42135;DHT22;28312;43.460;11.810;2023-07-20T14:48:23;38.10;38.40
42135;DHT22;28312;43.460;11.810;2023-07-20T14:52:27;38.10;38.50
42135;DHT22;28312;43.460;11.810;2023-07-20T14:56:31;38.20;38.50
42135;DHT22;28312;43.460;11.810;2023-07-20T15:00:34;38.30;38.40
42135;DHT22;28312;43.460;11.810;2023-07-20T15:04:45;38.20;38.30
42135;DHT22;28312;43.460;11.810;2023-07-20T15:08:48;38.10;38.40
42135;DHT22;28312;43.460;11.810;2023-07-20T15:12:51;38.10;38.30
42135;DHT22;28312;43.460;11.810;2023-07-20T15:16:55;38.00;38.40
42135;DHT22;28312;43.460;11.810;2023-07-20T15:20:58;38.00;38.50
42135;DHT22;28312;43.460;11.810;2023-07-20T15:25:02;38.00;38.40
42135;DHT22;28312;43.460;11.810;2023-07-20T15:29:05;37.90;38.50
42135;DHT22;28312;43.460;11.810;2023-07-20T15:33:09;37.80;38.10
42135;DHT22;28312;43.460;11.810;2023-07-20T15:37:12;37.60;37.90
42135;DHT22;28312;43.460;11.810;2023-07-20T15:41:16;37.50;37.80
42135;DHT22;28312;43.460;11.810;2023-07-20T15:45:22;37.40;37.90
42135;DHT22;28312;43.460;11.810;2023-07-20T15:49:27;37.40;37.80
42135;DHT22;28312;43.460;11.810;2023-07-20T15:53:34;37.20;37.60
42135;DHT22;28312;43.460;11.810;2023-07-20T15:57:37;37.10;37.80
42135;DHT22;28312;43.460;11.810;2023-07-20T16:01:41;37.10;37.90
42135;DHT22;28312;43.460;11.810;2023-07-20T16:05:46;37.10;37.70
42135;DHT22;28312;43.460;11.810;2023-07-20T16:09:50;37.00;37.70
42135;DHT22;28312;43.460;11.810;2023-07-20T16:13:53;37.00;37.80
42135;DHT22;28312;43.460;11.810;2023-07-20T16:17:56;37.00;37.80
42135;DHT22;28312;43.460;11.810;2023-07-20T16:22:00;37.00;37.80
42135;DHT22;28312;43.460;11.810;2023-07-20T16:26:03;36.80;37.60
42135;DHT22;28312;43.460;11.810;2023-07-20T16:30:07;36.70;37.60
42135;DHT22;28312;43.460;11.810;2023-07-20T16:34:10;36.60;37.70
42135;DHT22;28312;43.460;11.810;2023-07-20T16:38:13;36.40;37.50
42135;DHT22;28312;43.460;11.810;2023-07-20T16:42:18;36.20;37.60
42135;DHT22;28312;43.460;11.810;2023-07-20T16:46:22;36.10;37.60
42135;DHT22;28312;43.460;11.810;2023-07-20T16:50:28;36.00;37.70
42135;DHT22;28312;43.460;11.810;2023-07-20T16:54:32;35.80;37.70
42135;DHT22;28312;43.460;11.810;2023-07-20T16:58:35;35.70;37.70
42135;DHT22;28312;43.460;11.810;2023-07-20T17:02:40;35.50;37.80
42135;DHT22;28312;43.460;11.810;2023-07-20T17:06:46;35.30;37.80
42135;DHT22;28312;43.460;11.810;2023-07-20T17:10:50;35.10;37.90
42135;DHT22;28312;43.460;11.810;2023-07-20T17:14:54;35.00;38.00
42135;DHT22;28312;43.460;11.810;2023-07-20T17:18:57;34.90;37.90
42135;DHT22;28312;43.460;11.810;2023-07-20T17:23:00;34.70;38.00
42135;DHT22;28312;43.460;11.810;2023-07-20T17:27:04;34.60;38.10
42135;DHT22;28312;43.460;11.810;2023-07-20T17:31:10;34.40;38.10
42135;DHT22;28312;43.460;11.810;2023-07-20T17:35:14;34.30;38.20
42135;DHT22;28312;43.460;11.810;2023-07-20T17:39:17;34.10;38.20
42135;DHT22;28312;43.460;11.810;2023-07-20T17:43:20;34.10;38.30
42135;DHT22;28312;43.460;11.810;2023-07-20T17:47:24;33.90;38.30
42135;DHT22;28312;43.460;11.810;2023-07-20T17:51:28;33.70;38.30
42135;DHT22;28312;43.460;11.810;2023-07-20T17:55:31;33.60;38.30
42135;DHT22;28312;43.460;11.810;2023-07-20T17:59:35;33.50;38.30
42135;DHT22;28312;43.460;11.810;2023-07-20T18:04:00;33.30;38.40
42135;DHT22;28312;43.460;11.810;2023-07-20T18:08:04;33.10;38.50
42135;DHT22;28312;43.460;11.810;2023-07-20T18:12:07;33.00;38.50
42135;DHT22;28312;43.460;11.810;2023-07-20T18:16:11;32.80;38.50
42135;DHT22;28312;43.460;11.810;2023-07-20T18:20:14;32.60;38.60
42135;DHT22;28312;43.460;11.810;2023-07-20T18:24:17;32.50;38.60
42135;DHT22;28312;43.460;11.810;2023-07-20T18:28:21;32.30;38.60
42135;DHT22;28312;43.460;11.810;2023-07-20T18:32:24;32.10;38.70
42135;DHT22;28312;43.460;11.810;2023-07-20T18:36:29;32.10;38.70
42135;DHT22;28312;43.460;11.810;2023-07-20T18:40:32;31.90;38.80
42135;DHT22;28312;43.460;11.810;2023-07-20T18:44:35;31.80;38.90
42135;DHT22;28312;43.460;11.810;2023-07-20T18:48:39;31.60;38.90
42135;DHT22;28312;43.460;11.810;2023-07-20T18:52:42;31.40;39.00
42135;DHT22;28312;43.460;11.810;2023-07-20T18:56:46;31.20;39.10
42135;DHT22;28312;43.460;11.810;2023-07-20T19:00:50;31.10;39.10
42135;DHT22;28312;43.460;11.810;2023-07-20T19:04:53;30.90;39.20
42135;DHT22;28312;43.460;11.810;2023-07-20T19:08:57;30.80;39.30
42135;DHT22;28312;43.460;11.810;2023-07-20T19:13:01;30.60;39.40
42135;DHT22;28312;43.460;11.810;2023-07-20T19:17:05;30.60;39.40
42135;DHT22;28312;43.460;11.810;2023-07-20T19:21:09;30.40;39.40
42135;DHT22;28312;43.460;11.810;2023-07-20T19:25:12;30.30;39.50
42135;DHT22;28312;43.460;11.810;2023-07-20T19:29:15;30.20;39.60
42135;DHT22;28312;43.460;11.810;2023-07-20T19:33:19;30.10;39.60
42135;DHT22;28312;43.460;11.810;2023-07-20T19:37:22;29.90;39.70
42135;DHT22;28312;43.460;11.810;2023-07-20T19:41:25;29.70;39.70
42135;DHT22;28312;43.460;11.810;2023-07-20T19:45:29;29.70;39.80
42135;DHT22;28312;43.460;11.810;2023-07-20T19:49:33;29.60;39.80
42135;DHT22;28312;43.460;11.810;2023-07-20T19:53:36;29.40;40.00
42135;DHT22;28312;43.460;11.810;2023-07-20T19:57:40;29.20;40.10
42135;DHT22;28312;43.460;11.810;2023-07-20T20:01:43;29.10;40.10
42135;DHT22;28312;43.460;11.810;2023-07-20T20:05:47;28.80;40.10
42135;DHT22;28312;43.460;11.810;2023-07-20T20:09:50;28.60;40.20
42135;DHT22;28312;43.460;11.810;2023-07-20T20:13:54;28.40;40.20
42135;DHT22;28312;43.460;11.810;2023-07-20T20:17:58;28.10;40.40
42135;DHT22;28312;43.460;11.810;2023-07-20T20:22:02;27.90;40.50
42135;DHT22;28312;43.460;11.810;2023-07-20T20:26:07;27.80;40.50
42135;DHT22;28312;43.460;11.810;2023-07-20T20:30:11;27.60;40.50
42135;DHT22;28312;43.460;11.810;2023-07-20T20:34:14;27.30;40.80
42135;DHT22;28312;43.460;11.810;2023-07-20T20:38:19;27.10;40.90
42135;DHT22;28312;43.460;11.810;2023-07-20T20:42:22;26.90;41.00
42135;DHT22;28312;43.460;11.810;2023-07-20T20:46:25;26.70;41.20
42135;DHT22;28312;43.460;11.810;2023-07-20T20:50:29;26.60;41.30
42135;DHT22;28312;43.460;11.810;2023-07-20T20:54:35;26.60;41.30
42135;DHT22;28312;43.460;11.810;2023-07-20T20:58:38;26.60;41.30
42135;DHT22;28312;43.460;11.810;2023-07-20T21:02:43;26.50;41.40
42135;DHT22;28312;43.460;11.810;2023-07-20T21:06:49;26.50;41.50
42135;DHT22;28312;43.460;11.810;2023-07-20T21:10:56;26.50;41.60
42135;DHT22;28312;43.460;11.810;2023-07-20T21:15:00;26.50;41.60
42135;DHT22;28312;43.460;11.810;2023-07-20T21:19:08;26.40;41.60
42135;DHT22;28312;43.460;11.810;2023-07-20T21:23:11;26.30;41.70
42135;DHT22;28312;43.460;11.810;2023-07-20T21:27:15;26.20;41.70
42135;DHT22;28312;43.460;11.810;2023-07-20T21:31:18;26.10;41.80
42135;DHT22;28312;43.460;11.810;2023-07-20T21:35:22;26.10;41.90
42135;DHT22;28312;43.460;11.810;2023-07-20T21:39:25;26.10;41.90
42135;DHT22;28312;43.460;11.810;2023-07-20T21:43:29;25.70;42.10
42135;DHT22;28312;43.460;11.810;2023-07-20T21:47:32;25.60;42.20
42135;DHT22;28312;43.460;11.810;2023-07-20T21:51:35;25.30;42.30
42135;DHT22;28312;43.460;11.810;2023-07-20T21:55:39;25.10;42.40
42135;DHT22;28312;43.460;11.810;2023-07-20T21:59:42;25.00;42.50
42135;DHT22;28312;43.460;11.810;2023-07-20T22:03:45;24.70;42.60
42135;DHT22;28312;43.460;11.810;2023-07-20T22:07:51;24.60;42.80
42135;DHT22;28312;43.460;11.810;2023-07-20T22:11:57;24.40;42.80
42135;DHT22;28312;43.460;11.810;2023-07-20T22:16:01;24.20;42.90
42135;DHT22;28312;43.460;11.810;2023-07-20T22:20:05;24.10;42.90
42135;DHT22;28312;43.460;11.810;2023-07-20T22:24:10;24.00;43.00
42135;DHT22;28312;43.460;11.810;2023-07-20T22:28:14;23.80;43.00
42135;DHT22;28312;43.460;11.810;2023-07-20T22:32:17;23.70;43.10
42135;DHT22;28312;43.460;11.810;2023-07-20T22:36:20;23.60;43.20
42135;DHT22;28312;43.460;11.810;2023-07-20T22:40:25;23.60;43.20
42135;DHT22;28312;43.460;11.810;2023-07-20T22:44:30;23.50;43.30
42135;DHT22;28312;43.460;11.810;2023-07-20T22:48:33;23.40;43.30
42135;DHT22;28312;43.460;11.810;2023-07-20T22:52:36;23.30;43.30
42135;DHT22;28312;43.460;11.810;2023-07-20T22:56:40;23.20;43.40
42135;DHT22;28312;43.460;11.810;2023-07-20T23:00:45;23.10;43.50
42135;DHT22;28312;43.460;11.810;2023-07-20T23:04:50;23.10;43.60
42135;DHT22;28312;43.460;11.810;2023-07-20T23:08:56;23.00;43.70
42135;DHT22;28312;43.460;11.810;2023-07-20T23:13:03;22.70;43.90
42135;DHT22;28312;43.460;11.810;2023-07-20T23:17:06;22.60;44.00
42135;DHT22;28312;43.460;11.810;2023-07-20T23:21:13;22.60;44.00
42135;DHT22;28312;43.460;11.810;2023-07-20T23:25:18;22.60;44.00
42135;DHT22;28312;43.460;11.810;2023-07-20T23:29:22;22.50;44.00
42135;DHT22;28312;43.460;11.810;2023-07-20T23:33:26;22.40;44.20
42135;DHT22;28312;43.460;11.810;2023-07-20T23:37:29;22.30;44.20
42135;DHT22;28312;43.460;11.810;2023-07-20T23:41:33;22.30;44.20
42135;DHT22;28312;43.460;11.810;2023-07-20T23:45:38;22.20;44.30
42135;DHT22;28312;43.460;11.810;2023-07-20T23:49:41;22.10;44.30
42135;DHT22;28312;43.460;11.810;2023-07-20T23:53:45;22.10;44.40
42135;DHT22;28312;43.460;11.810;2023-07-20T23:57:48;22.00;44.40
